Time;durP1;ratioP1;P1;durP2;ratioP2;P2;SDS_P1;SDS_P2;PMS_P1;PMS_P2;Temp;Humidity;BMP_temperature;BMP_pressure;BME280_temperature;BME280_humidity;BME280_pressure;Samples;Min_cycle;Max_cycle;Signal;HPM_P1;HPM_P2
2023/09/17 00:00:05;;;;;;;13.13;8.45;;;18.40;99.90;;;;;;4993440;28;20041;-86
2023/09/17 00:02:31;;;;;;;12.07;8.82;;;18.40;99.90;;;;;;4976808;28;20035;-86
2023/09/17 00:04:57;;;;;;;13.38;8.07;;;18.40;99.90;;;;;;4992278;28;20453;-85
2023/09/17 00:07:22;;;;;;;10.20;8.73;;;18.40;99.90;;;;;;4987513;28;20035;-85
2023/09/17 00:09:48;;;;;;;10.80;8.23;;;18.40;99.90;;;;;;4991381;28;20085;-85
2023/09/17 00:12:14;;;;;;;10.80;9.05;;;18.30;99.90;;;;;;4992965;28;20502;-86
2023/09/17 00:14:39;;;;;;;10.70;8.38;;;18.30;99.90;;;;;;4992702;28;20744;-85
2023/09/17 00:17:05;;;;;;;9.63;8.32;;;18.30;99.90;;;;;;4991403;28;20433;-85
2023/09/17 00:19:32;;;;;;;10.05;8.30;;;18.30;99.90;;;;;;4989693;28;20023;-86
2023/09/17 00:21:58;;;;;;;9.90;7.05;;;18.30;99.90;;;;;;4976085;28;20030;-85
2023/09/17 00:24:24;;;;;;;16.55;8.77;;;18.30;99.90;;;;;;4992885;28;20032;-85
2023/09/17 00:26:50;;;;;;;11.70;8.15;;;18.20;99.90;;;;;;4975686;28;20057;-85
2023/09/17 00:29:15;;;;;;;9.60;7.68;;;18.10;99.90;;;;;;4992560;28;20030;-86
2023/09/17 00:31:41;;;;;;;8.40;7.57;;;18.10;99.90;;;;;;4991941;28;20029;-85
2023/09/17 00:34:07;;;;;;;10.40;7.47;;;18.10;99.90;;;;;;4975921;28;20030;-85
2023/09/17 00:36:32;;;;;;;9.63;7.30;;;18.10;99.90;;;;;;4992134;28;20030;-85
2023/09/17 00:38:58;;;;;;;11.10;7.80;;;18.10;99.90;;;;;;4992575;28;20034;-85
2023/09/17 00:41:23;;;;;;;10.98;7.43;;;18.10;99.90;;;;;;4992605;28;20061;-86
2023/09/17 00:43:49;;;;;;;8.52;6.93;;;18.10;99.90;;;;;;4975848;28;20034;-85
2023/09/17 00:46:14;;;;;;;11.00;8.10;;;18.00;99.90;;;;;;4974037;28;20117;-86
2023/09/17 00:48:42;;;;;;;11.15;7.93;;;18.10;99.90;;;;;;4975873;28;20046;-86
2023/09/17 00:51:08;;;;;;;10.40;8.18;;;18.00;99.90;;;;;;4991825;28;20031;-85
2023/09/17 00:53:34;;;;;;;10.95;8.27;;;18.00;99.90;;;;;;4976242;28;20038;-85
2023/09/17 00:56:01;;;;;;;9.48;7.80;;;18.00;99.90;;;;;;4974830;28;20113;-85
2023/09/17 00:58:29;;;;;;;12.50;9.77;;;17.90;99.90;;;;;;4991602;28;20479;-85
2023/09/17 01:00:58;;;;;;;10.68;9.57;;;17.90;99.90;;;;;;4988328;28;20058;-85
2023/09/17 01:03:24;;;;;;;12.98;11.00;;;17.80;99.90;;;;;;4984634;28;20475;-85
2023/09/17 01:05:52;;;;;;;13.98;10.70;;;17.70;99.90;;;;;;4991073;28;20023;-85
2023/09/17 01:08:17;;;;;;;13.77;11.40;;;17.70;99.90;;;;;;4976459;28;20398;-85
2023/09/17 01:10:43;;;;;;;13.60;11.90;;;17.60;99.90;;;;;;4988563;28;20030;-85
2023/09/17 01:13:10;;;;;;;14.20;9.77;;;17.50;99.90;;;;;;4991258;28;20046;-85
2023/09/17 01:15:37;;;;;;;13.13;9.45;;;17.50;99.90;;;;;;4992649;28;20031;-85
2023/09/17 01:18:05;;;;;;;11.52;10.35;;;17.40;99.90;;;;;;4991506;28;20116;-85
2023/09/17 01:20:34;;;;;;;11.18;8.80;;;17.40;99.90;;;;;;4991570;28;20084;-85
2023/09/17 01:23:08;;;;;;;13.55;10.68;;;17.40;99.90;;;;;;4973490;28;20054;-85
2023/09/17 01:25:58;;;;;;;11.68;9.60;;;17.40;99.90;;;;;;4988639;28;20027;-85
2023/09/17 01:28:23;;;;;;;10.13;8.60;;;17.30;99.90;;;;;;4989953;28;20062;-85
2023/09/17 01:30:49;;;;;;;12.25;9.07;;;17.30;99.90;;;;;;4991426;28;20066;-86
2023/09/17 01:33:15;;;;;;;10.45;8.90;;;17.30;99.90;;;;;;4975469;28;20053;-85
2023/09/17 01:35:57;;;;;;;14.63;9.05;;;17.30;99.90;;;;;;4992178;28;20027;-85
2023/09/17 01:38:30;;;;;;;12.85;7.80;;;17.30;99.90;;;;;;4985790;28;20030;-85
2023/09/17 01:40:56;;;;;;;11.07;8.73;;;17.30;99.90;;;;;;4990467;28;20022;-85
2023/09/17 01:43:23;;;;;;;12.38;8.60;;;17.20;99.90;;;;;;4991506;28;20129;-85
2023/09/17 01:45:50;;;;;;;10.90;9.23;;;17.30;99.90;;;;;;4990786;28;20027;-85
2023/09/17 01:48:17;;;;;;;10.75;7.95;;;17.30;99.90;;;;;;4974756;28;20022;-85
2023/09/17 01:50:43;;;;;;;10.80;7.65;;;17.30;99.90;;;;;;4992257;28;20026;-85
2023/09/17 01:53:11;;;;;;;8.15;7.20;;;17.20;99.90;;;;;;4990814;28;20101;-85
2023/09/17 01:55:37;;;;;;;13.10;6.88;;;17.20;99.90;;;;;;4974334;28;20030;-85
2023/09/17 01:58:03;;;;;;;11.65;8.00;;;17.20;99.90;;;;;;4990330;28;20034;-85
2023/09/17 02:00:28;;;;;;;9.90;7.85;;;17.20;99.90;;;;;;4990842;28;20121;-85
2023/09/17 02:02:55;;;;;;;12.52;9.68;;;17.20;99.90;;;;;;4990128;28;20030;-85
2023/09/17 02:05:21;;;;;;;14.38;10.52;;;17.20;99.90;;;;;;4974134;28;20023;-83
2023/09/17 02:07:48;;;;;;;10.57;8.75;;;17.20;99.90;;;;;;4990577;28;20455;-84
2023/09/17 02:10:13;;;;;;;13.05;9.80;;;17.10;99.90;;;;;;4974777;28;20498;-83
2023/09/17 02:12:39;;;;;;;15.23;10.70;;;17.00;99.90;;;;;;4978238;28;20105;-84
2023/09/17 02:15:05;;;;;;;12.98;10.25;;;16.80;99.90;;;;;;4991304;28;20371;-84
2023/09/17 02:17:31;;;;;;;13.43;9.25;;;16.60;99.90;;;;;;4993020;28;20030;-84
2023/09/17 02:19:56;;;;;;;15.75;11.85;;;16.50;99.90;;;;;;4992802;28;20022;-84
2023/09/17 02:22:22;;;;;;;18.70;12.80;;;16.30;99.90;;;;;;4993054;28;20057;-83
2023/09/17 02:24:48;;;;;;;18.08;13.30;;;16.20;99.90;;;;;;4991966;28;20049;-82
2023/09/17 02:27:15;;;;;;;16.40;13.70;;;16.00;99.90;;;;;;4974706;28;20022;-84
2023/09/17 02:29:41;;;;;;;18.98;13.10;;;15.90;99.90;;;;;;4979987;28;20570;-83
2023/09/17 02:32:06;;;;;;;19.92;14.43;;;15.80;99.90;;;;;;4992333;28;20035;-84
2023/09/17 02:34:32;;;;;;;13.57;12.07;;;15.80;99.90;;;;;;4986614;28;20435;-83
2023/09/17 02:36:57;;;;;;;19.52;12.27;;;15.70;99.90;;;;;;4976897;28;20034;-84
2023/09/17 02:39:23;;;;;;;19.67;14.65;;;15.70;99.90;;;;;;4976988;28;20479;-85
2023/09/17 02:41:48;;;;;;;19.48;15.75;;;15.70;99.90;;;;;;4993546;28;20027;-84
2023/09/17 02:44:14;;;;;;;19.58;14.15;;;15.60;99.90;;;;;;4992912;28;20471;-84
2023/09/17 02:46:40;;;;;;;18.58;15.73;;;15.50;99.90;;;;;;4975127;28;20026;-84
2023/09/17 02:49:06;;;;;;;20.38;15.20;;;15.50;99.90;;;;;;4990557;28;20481;-84
2023/09/17 02:51:31;;;;;;;20.45;16.90;;;15.40;99.90;;;;;;4992226;28;20034;-84
2023/09/17 02:53:57;;;;;;;29.77;17.92;;;15.40;99.90;;;;;;4970325;28;20042;-84
2023/09/17 02:56:22;;;;;;;19.98;17.00;;;15.40;99.90;;;;;;4991113;28;20109;-84
2023/09/17 02:58:48;;;;;;;22.98;17.25;;;15.40;99.90;;;;;;4989202;28;20126;-84
2023/09/17 03:01:20;;;;;;;19.67;15.73;;;15.30;99.90;;;;;;4992721;28;20022;-84
2023/09/17 03:03:46;;;;;;;22.75;18.70;;;15.30;99.90;;;;;;4992718;28;20391;-84
2023/09/17 03:06:12;;;;;;;20.02;16.95;;;15.30;99.90;;;;;;4992870;28;20117;-85
2023/09/17 03:08:41;;;;;;;21.33;17.95;;;15.30;99.90;;;;;;4976644;28;20451;-85
2023/09/17 03:11:13;;;;;;;18.65;15.95;;;15.30;99.90;;;;;;4992626;28;20398;-86
2023/09/17 03:13:41;;;;;;;24.40;18.93;;;15.20;99.90;;;;;;4940384;28;1080366;-85
2023/09/17 03:16:06;;;;;;;17.77;15.95;;;15.20;99.90;;;;;;4977302;28;20026;-85
2023/09/17 03:18:32;;;;;;;23.48;17.88;;;15.20;99.90;;;;;;4993451;28;20026;-84
2023/09/17 03:20:58;;;;;;;26.35;20.00;;;15.20;99.90;;;;;;4988143;28;20030;-84
2023/09/17 03:23:23;;;;;;;23.30;19.27;;;15.20;99.90;;;;;;4993519;28;20030;-84
2023/09/17 03:25:49;;;;;;;25.83;19.58;;;15.20;99.90;;;;;;4992201;28;20117;-84
2023/09/17 03:28:14;;;;;;;23.58;20.17;;;15.30;99.90;;;;;;4980347;28;20072;-85
2023/09/17 03:30:40;;;;;;;23.60;19.42;;;15.20;99.90;;;;;;4992977;28;20100;-85
2023/09/17 03:33:08;;;;;;;22.17;19.58;;;15.20;99.90;;;;;;4976976;28;20482;-86
2023/09/17 03:35:33;;;;;;;25.90;22.17;;;15.20;99.90;;;;;;4993996;28;20479;-86
2023/09/17 03:37:59;;;;;;;23.52;19.65;;;15.20;99.90;;;;;;4993043;28;20045;-86
2023/09/17 03:40:25;;;;;;;23.67;19.25;;;15.20;99.90;;;;;;4993569;28;20025;-87
2023/09/17 03:42:50;;;;;;;26.38;22.15;;;15.20;99.90;;;;;;4977300;28;20033;-86
2023/09/17 03:45:16;;;;;;;28.23;22.13;;;15.20;99.90;;;;;;4980542;28;20045;-86
2023/09/17 03:47:43;;;;;;;27.38;20.35;;;15.20;99.90;;;;;;4992468;28;20073;-85
2023/09/17 03:50:11;;;;;;;22.50;19.88;;;15.20;99.90;;;;;;4991432;28;20042;-85
2023/09/17 03:52:38;;;;;;;27.83;22.52;;;15.20;99.90;;;;;;4992045;28;20129;-83
2023/09/17 03:55:05;;;;;;;28.48;22.42;;;15.20;99.90;;;;;;4976535;28;20023;-85
2023/09/17 03:57:34;;;;;;;25.48;22.00;;;15.20;99.90;;;;;;4963546;28;20026;-86
2023/09/17 03:59:59;;;;;;;29.17;23.35;;;15.20;99.90;;;;;;4992463;28;20401;-85
2023/09/17 04:02:25;;;;;;;29.20;22.23;;;15.20;99.90;;;;;;4976556;28;20034;-85
2023/09/17 04:04:51;;;;;;;30.35;24.77;;;15.20;99.90;;;;;;4992705;28;20030;-85
2023/09/17 04:07:16;;;;;;;31.95;24.98;;;15.20;99.90;;;;;;4992353;28;20033;-86
2023/09/17 04:09:42;;;;;;;31.08;24.83;;;15.20;99.90;;;;;;4971769;28;20120;-86
2023/09/17 04:12:08;;;;;;;28.13;24.27;;;15.10;99.90;;;;;;4989681;28;20535;-85
2023/09/17 04:14:34;;;;;;;27.70;22.65;;;15.10;99.90;;;;;;4993024;28;20022;-85
2023/09/17 04:17:05;;;;;;;34.67;25.00;;;15.20;99.90;;;;;;4993300;28;20096;-85
2023/09/17 04:19:31;;;;;;;32.35;26.95;;;15.20;99.90;;;;;;4992574;28;20026;-86
2023/09/17 04:21:57;;;;;;;35.55;28.45;;;15.20;99.90;;;;;;4976905;28;20026;-85
2023/09/17 04:24:25;;;;;;;36.97;29.27;;;15.10;99.90;;;;;;4992685;28;20501;-86
2023/09/17 04:26:52;;;;;;;41.03;31.45;;;15.20;99.90;;;;;;4992899;28;20041;-86
2023/09/17 04:29:18;;;;;;;40.25;29.38;;;15.20;99.90;;;;;;4994726;28;20033;-85
2023/09/17 04:31:44;;;;;;;40.03;30.20;;;15.20;99.90;;;;;;4991209;28;20030;-87
2023/09/17 04:34:11;;;;;;;30.55;24.23;;;15.20;99.90;;;;;;4995241;28;20054;-86
2023/09/17 04:36:37;;;;;;;40.88;29.55;;;15.20;99.90;;;;;;4992147;28;20022;-87
2023/09/17 04:39:03;;;;;;;38.53;27.10;;;15.20;99.90;;;;;;4976218;28;20045;-87
2023/09/17 04:41:28;;;;;;;40.47;31.63;;;15.20;99.90;;;;;;4988527;28;20018;-87
2023/09/17 04:43:54;;;;;;;36.95;28.67;;;15.20;99.90;;;;;;5001308;28;20552;-87
2023/09/17 04:46:19;;;;;;;37.17;27.35;;;15.30;99.90;;;;;;4981476;28;20026;-87
2023/09/17 04:48:45;;;;;;;36.45;28.50;;;15.30;99.90;;;;;;4990221;28;20030;-86
2023/09/17 04:51:15;;;;;;;38.55;29.27;;;15.30;99.90;;;;;;4991654;28;20031;-86
2023/09/17 04:53:41;;;;;;;41.80;31.23;;;15.30;99.90;;;;;;4989388;28;20045;-86
2023/09/17 04:56:07;;;;;;;44.65;32.55;;;15.30;99.90;;;;;;4988921;28;20026;-86
2023/09/17 04:58:33;;;;;;;42.78;31.48;;;15.30;99.90;;;;;;4986333;28;20069;-87
2023/09/17 05:00:58;;;;;;;37.30;28.85;;;15.30;99.90;;;;;;4989377;28;20501;-86
2023/09/17 05:03:24;;;;;;;37.20;30.10;;;15.30;99.90;;;;;;4992016;28;20018;-87
2023/09/17 05:05:50;;;;;;;41.05;30.05;;;15.40;99.90;;;;;;4989994;28;20030;-87
2023/09/17 05:08:18;;;;;;;40.13;30.67;;;15.40;99.90;;;;;;4976470;28;20045;-86
2023/09/17 05:10:44;;;;;;;39.50;30.45;;;15.40;99.90;;;;;;4991676;28;20507;-86
2023/09/17 05:13:09;;;;;;;41.55;31.40;;;15.40;99.90;;;;;;4964561;28;20112;-85
2023/09/17 05:15:36;;;;;;;41.08;31.50;;;15.40;99.90;;;;;;4993121;28;20117;-85
2023/09/17 05:18:08;;;;;;;39.30;31.52;;;15.40;99.90;;;;;;4981400;28;20404;-86
2023/09/17 05:20:35;;;;;;;;;;;15.40;99.90;;;;;;4988039;28;20042;-88
2023/09/17 05:23:00;;;;;;;42.33;31.38;;;15.40;99.90;;;;;;4982023;28;19997;-87
2023/09/17 05:25:26;;;;;;;38.85;30.67;;;15.40;99.90;;;;;;4985846;28;20038;-87
2023/09/17 05:27:51;;;;;;;37.95;29.33;;;15.40;99.90;;;;;;4973688;28;20134;-86
2023/09/17 05:30:17;;;;;;;48.13;34.33;;;15.40;99.90;;;;;;4988931;28;20050;-85
2023/09/17 05:32:43;;;;;;;42.83;30.98;;;15.50;99.90;;;;;;4991200;28;20445;-87
2023/09/17 05:35:08;;;;;;;37.83;27.90;;;15.50;99.90;;;;;;4991626;28;20100;-86
2023/09/17 05:37:34;;;;;;;38.40;31.33;;;15.50;99.90;;;;;;4989375;28;20033;-86
2023/09/17 05:40:00;;;;;;;43.85;33.33;;;15.50;99.90;;;;;;4991945;28;20518;-86
2023/09/17 05:42:26;;;;;;;42.65;32.60;;;15.50;99.90;;;;;;4992141;28;20549;-87
2023/09/17 05:44:52;;;;;;;38.88;30.35;;;15.50;99.90;;;;;;4991887;28;20482;-88
2023/09/17 05:47:18;;;;;;;40.38;31.50;;;15.50;99.90;;;;;;4981526;28;20062;-87
2023/09/17 05:49:43;;;;;;;38.78;30.95;;;15.60;99.90;;;;;;4989814;28;20057;-88
2023/09/17 05:52:09;;;;;;;39.97;30.83;;;15.60;99.90;;;;;;4972377;28;20034;-88
2023/09/17 05:54:34;;;;;;;37.65;31.48;;;15.70;99.90;;;;;;4985772;28;20031;-88
2023/09/17 05:57:00;;;;;;;38.67;30.77;;;15.70;99.90;;;;;;4976192;28;20371;-88
2023/09/17 05:59:25;;;;;;;35.65;28.55;;;15.80;99.90;;;;;;4986327;28;20038;-86
2023/09/17 06:01:51;;;;;;;43.10;31.60;;;15.80;99.90;;;;;;4988016;28;20182;-87
2023/09/17 06:04:17;;;;;;;39.63;30.20;;;15.80;99.90;;;;;;4987337;28;20026;-86
2023/09/17 06:06:42;;;;;;;40.63;30.88;;;15.90;99.90;;;;;;4991765;28;20605;-88
2023/09/17 06:09:09;;;;;;;32.28;27.33;;;15.90;99.90;;;;;;4970307;28;20042;-88
2023/09/17 06:11:34;;;;;;;35.80;29.05;;;15.90;99.90;;;;;;4972349;28;20036;-89
2023/09/17 06:14:00;;;;;;;38.17;31.35;;;15.90;99.90;;;;;;4985305;28;20433;-87
2023/09/17 06:16:25;;;;;;;44.30;32.25;;;16.00;99.90;;;;;;4986779;28;20030;-88
2023/09/17 06:18:52;;;;;;;38.60;30.50;;;16.00;99.90;;;;;;4987604;28;20049;-87
2023/09/17 06:21:17;;;;;;;38.92;30.77;;;16.00;99.90;;;;;;4969853;28;20037;-88
2023/09/17 06:23:43;;;;;;;35.05;28.45;;;16.00;99.90;;;;;;4972353;28;20031;-87
2023/09/17 06:26:09;;;;;;;40.90;31.40;;;16.00;99.90;;;;;;4990506;28;20402;-87
2023/09/17 06:28:34;;;;;;;38.85;31.10;;;16.10;99.90;;;;;;4986080;28;20113;-87
2023/09/17 06:31:01;;;;;;;36.67;29.15;;;16.10;99.90;;;;;;4985800;28;20117;-87
2023/09/17 06:33:27;;;;;;;39.90;31.45;;;16.20;99.90;;;;;;4988553;28;20465;-88
2023/09/17 06:35:53;;;;;;;43.92;33.33;;;16.20;99.90;;;;;;4988137;28;20062;-88
2023/09/17 06:38:19;;;;;;;40.65;30.70;;;16.20;99.90;;;;;;4986953;28;20070;-87
2023/09/17 06:40:44;;;;;;;39.63;29.63;;;16.20;99.90;;;;;;4984581;28;20015;-87
2023/09/17 06:43:09;;;;;;;42.92;31.27;;;16.30;99.90;;;;;;4984588;28;20084;-88
2023/09/17 06:45:35;;;;;;;41.72;32.08;;;16.30;99.90;;;;;;4966639;28;20030;-87
2023/09/17 06:48:01;;;;;;;39.83;31.52;;;16.40;99.90;;;;;;4985675;28;20075;-86
2023/09/17 06:50:26;;;;;;;36.83;29.58;;;16.50;99.90;;;;;;4991216;28;20108;-86
2023/09/17 06:52:51;;;;;;;42.28;32.92;;;16.50;99.90;;;;;;4990991;28;20054;-87
2023/09/17 06:55:17;;;;;;;38.97;29.95;;;16.50;99.90;;;;;;4990318;28;20443;-86
2023/09/17 06:57:43;;;;;;;40.22;30.92;;;16.50;99.90;;;;;;4995821;28;20030;-87
2023/09/17 07:00:09;;;;;;;46.72;32.20;;;16.50;99.90;;;;;;4992765;28;20426;-87
2023/09/17 07:02:35;;;;;;;43.10;32.22;;;16.50;99.90;;;;;;4982573;28;20361;-87
2023/09/17 07:05:07;;;;;;;38.50;30.20;;;16.50;99.90;;;;;;4988884;28;20029;-87
2023/09/17 07:07:32;;;;;;;36.85;27.10;;;16.50;99.90;;;;;;4990965;28;20113;-86
2023/09/17 07:10:00;;;;;;;36.78;28.85;;;16.60;99.90;;;;;;4991141;28;20138;-86
2023/09/17 07:12:25;;;;;;;37.00;25.92;;;16.50;99.90;;;;;;4990890;28;20475;-87
2023/09/17 07:14:51;;;;;;;33.00;25.48;;;16.50;99.90;;;;;;4990354;28;20085;-87
2023/09/17 07:17:16;;;;;;;32.60;25.38;;;16.60;99.90;;;;;;4988911;28;20483;-86
2023/09/17 07:19:42;;;;;;;42.92;28.23;;;16.50;99.90;;;;;;4990798;28;20030;-87
2023/09/17 07:22:11;;;;;;;106.88;48.50;;;16.50;99.90;;;;;;4995022;28;20035;-86
2023/09/17 07:24:37;;;;;;;42.17;28.80;;;16.50;99.90;;;;;;4994752;28;20027;-87
2023/09/17 07:27:03;;;;;;;37.58;24.90;;;16.60;99.90;;;;;;4992036;28;20121;-89
2023/09/17 07:29:32;;;;;;;35.08;25.52;;;16.60;99.90;;;;;;4989739;28;20026;-87
2023/09/17 07:31:57;;;;;;;28.85;21.83;;;16.70;99.90;;;;;;4985582;28;20038;-86
2023/09/17 07:34:24;;;;;;;30.20;24.20;;;16.70;99.90;;;;;;4988526;28;20068;-87
2023/09/17 07:36:50;;;;;;;34.42;23.33;;;16.60;99.90;;;;;;4990471;28;20125;-87
2023/09/17 07:39:16;;;;;;;34.47;24.77;;;16.60;99.90;;;;;;4988756;28;20114;-88
2023/09/17 07:41:41;;;;;;;28.95;23.17;;;16.60;99.90;;;;;;4991168;28;20033;-91
2023/09/17 07:44:07;;;;;;;42.35;24.50;;;16.60;99.90;;;;;;4977173;28;21070;-87
2023/09/17 07:46:32;;;;;;;31.77;23.63;;;16.60;99.90;;;;;;4993309;28;20034;-86
2023/09/17 07:49:00;;;;;;;28.27;21.92;;;16.50;99.90;;;;;;4987352;28;20065;-87
2023/09/17 07:51:25;;;;;;;28.95;23.73;;;16.60;99.90;;;;;;4988812;28;20536;-87
2023/09/17 07:53:51;;;;;;;31.08;21.80;;;16.60;99.90;;;;;;4990482;28;20042;-87
2023/09/17 07:56:17;;;;;;;33.78;25.33;;;16.70;99.90;;;;;;4992775;28;20014;-88
2023/09/17 07:58:42;;;;;;;29.55;23.88;;;16.70;99.90;;;;;;4992567;28;20027;-87
2023/09/17 08:01:08;;;;;;;37.20;25.70;;;16.70;99.90;;;;;;4991233;28;20026;-86
2023/09/17 08:03:34;;;;;;;32.47;24.55;;;16.70;99.90;;;;;;4994964;28;20056;-87
2023/09/17 08:06:00;;;;;;;30.80;23.33;;;16.70;99.90;;;;;;4993237;28;20026;-88
2023/09/17 08:08:26;;;;;;;35.45;24.75;;;16.70;99.90;;;;;;4994101;28;20026;-88
2023/09/17 08:10:52;;;;;;;33.50;23.92;;;16.70;99.90;;;;;;4976233;28;20043;-87
2023/09/17 08:13:17;;;;;;;30.45;24.30;;;16.60;99.90;;;;;;4981936;28;20050;-87
2023/09/17 08:15:43;;;;;;;28.40;22.17;;;16.60;99.90;;;;;;4994380;28;20541;-88
2023/09/17 08:18:09;;;;;;;31.38;24.15;;;16.60;99.90;;;;;;4990037;28;20073;-87
2023/09/17 08:20:34;;;;;;;31.98;24.05;;;16.60;99.90;;;;;;4992295;28;20019;-87
2023/09/17 08:23:00;;;;;;;37.65;26.70;;;16.60;99.90;;;;;;4996792;28;20114;-88
2023/09/17 08:25:30;;;;;;;31.48;24.70;;;16.70;99.90;;;;;;4994347;28;20030;-88
2023/09/17 08:27:56;;;;;;;31.63;24.45;;;16.70;99.90;;;;;;4989094;28;20113;-88
2023/09/17 08:30:21;;;;;;;32.47;25.17;;;16.80;99.90;;;;;;4990173;28;20098;-88
2023/09/17 08:32:47;;;;;;;35.47;25.23;;;16.90;99.90;;;;;;4991891;28;20101;-88
2023/09/17 08:35:14;;;;;;;38.30;27.02;;;17.00;99.90;;;;;;4994209;28;20014;-89
2023/09/17 08:37:43;;;;;;;36.55;27.65;;;17.10;99.90;;;;;;4976706;28;20022;-88
2023/09/17 08:40:14;;;;;;;33.80;24.73;;;17.20;99.90;;;;;;4992055;28;20513;-87
2023/09/17 08:42:43;;;;;;;35.83;26.50;;;17.20;99.90;;;;;;4975370;28;20042;-88
2023/09/17 08:45:10;;;;;;;32.72;24.27;;;17.10;99.90;;;;;;4975530;28;20494;-88
2023/09/17 08:47:37;;;;;;;38.70;28.17;;;17.20;99.90;;;;;;4991496;28;20192;-88
2023/09/17 08:50:10;;;;;;;35.03;25.65;;;17.10;99.90;;;;;;4988416;28;20498;-89
2023/09/17 08:52:37;;;;;;;;;;;17.10;99.90;;;;;;4986712;28;20038;-89
2023/09/17 08:55:08;;;;;;;35.65;26.02;;;17.00;99.90;;;;;;4984756;28;19928;-88
2023/09/17 08:57:36;;;;;;;33.28;25.63;;;17.00;99.90;;;;;;4990732;28;20019;-88
2023/09/17 09:00:10;;;;;;;38.45;25.77;;;17.00;99.90;;;;;;4978334;28;20041;-88
2023/09/17 09:02:44;;;;;;;36.72;26.80;;;17.00;99.90;;;;;;4990564;28;20023;-88
2023/09/17 09:05:11;;;;;;;42.53;29.33;;;17.10;99.90;;;;;;4970229;28;20038;-88
2023/09/17 09:07:37;;;;;;;39.30;30.08;;;17.30;99.90;;;;;;4990336;28;20035;-87
2023/09/17 09:10:04;;;;;;;35.25;27.48;;;17.30;99.90;;;;;;4987513;28;20383;-88
2023/09/17 09:12:32;;;;;;;35.20;27.02;;;17.50;99.90;;;;;;4991414;28;20050;-89
2023/09/17 09:14:59;;;;;;;34.10;28.33;;;17.50;99.90;;;;;;4987748;28;20062;-89
2023/09/17 09:17:26;;;;;;;35.25;29.92;;;17.50;99.90;;;;;;4971586;28;20487;-89
2023/09/17 09:19:52;;;;;;;38.53;28.60;;;17.50;99.90;;;;;;4991626;28;20088;-88
2023/09/17 09:22:17;;;;;;;32.75;25.50;;;17.50;99.90;;;;;;4991242;28;20065;-88
2023/09/17 09:24:49;;;;;;;39.45;30.08;;;17.50;99.90;;;;;;4987394;28;20026;-88
2023/09/17 09:27:15;;;;;;;;;;;17.60;99.90;;;;;;4988204;28;20027;-88
2023/09/17 09:29:43;;;;;;;40.67;29.27;;;17.70;99.90;;;;;;4989006;28;20332;-88
2023/09/17 09:32:10;;;;;;;38.92;29.75;;;17.80;99.90;;;;;;4985836;28;20479;-88
2023/09/17 09:34:37;;;;;;;35.20;25.88;;;17.90;99.90;;;;;;4973107;28;20038;-89
2023/09/17 09:37:08;;;;;;;41.88;31.52;;;18.00;99.90;;;;;;4973446;28;20062;-88
2023/09/17 09:39:37;;;;;;;37.58;27.10;;;18.10;99.90;;;;;;4985524;28;20094;-89
2023/09/17 09:42:07;;;;;;;38.70;28.92;;;18.20;99.90;;;;;;4990985;28;20034;-89
2023/09/17 09:44:34;;;;;;;41.33;30.75;;;18.20;99.90;;;;;;4969998;28;20030;-89
2023/09/17 09:47:02;;;;;;;38.63;30.67;;;18.30;99.90;;;;;;4999437;28;20037;-89
2023/09/17 09:49:28;;;;;;;41.13;32.22;;;18.30;99.90;;;;;;4987629;28;20042;-89
2023/09/17 09:51:58;;;;;;;40.75;31.33;;;18.30;99.90;;;;;;4972473;28;20499;-87
2023/09/17 09:54:23;;;;;;;39.80;29.52;;;18.40;99.90;;;;;;4968435;28;20066;-88
2023/09/17 09:56:49;;;;;;;33.88;26.08;;;18.50;99.90;;;;;;4986601;28;20484;-88
2023/09/17 09:59:15;;;;;;;39.15;29.70;;;18.50;99.90;;;;;;4984114;28;20027;-88
2023/09/17 10:01:41;;;;;;;43.72;31.92;;;18.50;99.90;;;;;;4988652;28;20038;-88
2023/09/17 10:04:11;;;;;;;46.42;34.95;;;18.60;99.90;;;;;;4993653;28;20490;-88
2023/09/17 10:06:40;;;;;;;47.58;35.05;;;18.60;99.90;;;;;;4992956;28;20088;-88
2023/09/17 10:09:06;;;;;;;46.53;32.08;;;18.60;99.90;;;;;;4974020;28;20041;-89
2023/09/17 10:11:34;;;;;;;39.47;28.80;;;18.80;99.90;;;;;;4989707;28;20089;-88
2023/09/17 10:14:04;;;;;;;47.80;36.53;;;19.00;99.90;;;;;;4991767;28;20097;-89
2023/09/17 10:16:30;;;;;;;47.92;35.22;;;19.10;99.90;;;;;;4982197;28;20035;-89
2023/09/17 10:18:57;;;;;;;57.25;40.42;;;19.20;99.90;;;;;;4974191;28;20398;-90
2023/09/17 10:21:29;;;;;;;53.80;40.03;;;19.30;99.90;;;;;;4971773;28;20487;-88
2023/09/17 10:23:57;;;;;;;;;;;19.40;99.90;;;;;;4991795;28;20034;-88
2023/09/17 10:26:24;;;;;;;50.90;34.40;;;19.40;99.90;;;;;;4973627;28;19993;-89
2023/09/17 10:28:54;;;;;;;56.35;37.65;;;19.50;99.90;;;;;;4970110;28;20400;-89
2023/09/17 10:31:21;;;;;;;55.58;40.83;;;19.60;99.90;;;;;;4992721;28;20054;-89
2023/09/17 10:33:49;;;;;;;61.47;42.47;;;19.70;99.90;;;;;;4996465;28;20029;-89
2023/09/17 10:36:16;;;;;;;54.35;38.22;;;19.80;99.90;;;;;;4992475;28;20045;-89
2023/09/17 10:38:43;;;;;;;57.10;40.58;;;19.90;99.90;;;;;;4979191;28;20042;-89
2023/09/17 10:41:11;;;;;;;50.72;37.47;;;20.00;99.90;;;;;;4992009;28;20018;-88
2023/09/17 10:43:40;;;;;;;53.22;37.25;;;20.10;99.90;;;;;;4993396;28;20395;-88
2023/09/17 10:46:06;;;;;;;56.38;40.75;;;20.20;99.90;;;;;;4993232;28;20031;-90
2023/09/17 10:48:33;;;;;;;54.25;40.53;;;20.30;99.90;;;;;;4994306;28;20034;-88
2023/09/17 10:50:59;;;;;;;54.17;41.70;;;20.40;99.90;;;;;;4987722;28;20073;-88
2023/09/17 10:53:28;;;;;;;52.35;38.25;;;20.40;99.90;;;;;;4995357;28;20102;-89
2023/09/17 10:56:07;;;;;;;47.22;36.53;;;20.50;99.90;;;;;;4977089;28;20022;-89
2023/09/17 10:58:45;;;;;;;59.15;39.88;;;20.60;99.90;;;;;;4976068;28;20034;-88
2023/09/17 11:01:14;;;;;;;55.38;42.67;;;20.50;99.90;;;;;;4974412;28;20033;-88
2023/09/17 11:03:45;;;;;;;61.45;43.25;;;20.60;99.90;;;;;;4993248;28;20026;-88
2023/09/17 11:06:16;;;;;;;54.40;40.22;;;20.60;99.90;;;;;;4994015;28;20034;-88
2023/09/17 11:08:46;;;;;;;54.80;41.80;;;20.60;99.90;;;;;;4995680;28;20026;-88
2023/09/17 11:11:16;;;;;;;54.70;39.17;;;20.70;99.90;;;;;;4977570;28;20117;-88
2023/09/17 11:13:46;;;;;;;59.25;41.28;;;20.70;99.90;;;;;;4994649;28;20401;-88
2023/09/17 11:16:23;;;;;;;58.67;43.17;;;20.80;99.90;;;;;;4992721;28;20018;-88
2023/09/17 11:19:12;;;;;;;55.25;38.10;;;20.80;99.90;;;;;;4996296;28;20030;-88
2023/09/17 11:22:06;;;;;;;58.67;41.05;;;20.70;99.90;;;;;;4990697;28;20101;-88
2023/09/17 11:24:32;;;;;;;58.38;39.63;;;20.70;99.90;;;;;;4993450;28;20084;-88
2023/09/17 11:27:01;;;;;;;57.80;41.13;;;20.70;99.90;;;;;;4976570;28;20026;-88
2023/09/17 11:29:41;;;;;;;58.22;42.08;;;20.70;99.90;;;;;;4976904;28;20050;-88
2023/09/17 11:32:07;;;;;;;57.60;41.22;;;20.80;99.90;;;;;;4993222;28;20030;-96
2023/09/17 11:34:41;;;;;;;57.75;42.65;;;20.90;99.90;;;;;;4988031;28;20034;-89
2023/09/17 11:37:07;;;;;;;62.35;43.70;;;20.90;99.90;;;;;;4982955;28;20030;-87
2023/09/17 11:39:36;;;;;;;58.50;42.30;;;21.00;99.90;;;;;;4999903;28;20037;-88
2023/09/17 11:42:07;;;;;;;57.50;41.85;;;21.10;99.90;;;;;;4998637;28;20101;-88
2023/09/17 11:44:34;;;;;;;56.55;44.63;;;21.20;99.90;;;;;;5001215;28;20029;-88
2023/09/17 11:47:00;;;;;;;57.53;42.75;;;21.30;99.90;;;;;;5000515;28;20113;-89
2023/09/17 11:49:28;;;;;;;59.35;42.88;;;21.30;99.90;;;;;;5001489;28;20029;-88
2023/09/17 11:51:57;;;;;;;57.63;43.20;;;21.40;99.90;;;;;;4999423;28;20042;-89
2023/09/17 11:54:30;;;;;;;55.08;38.53;;;21.40;99.90;;;;;;4998934;28;20038;-89
2023/09/17 11:56:56;;;;;;;49.58;37.42;;;21.40;99.90;;;;;;4999655;28;20034;-88
2023/09/17 11:59:24;;;;;;;49.75;40.55;;;21.40;99.90;;;;;;4980426;28;20030;-86
2023/09/17 12:01:55;;;;;;;54.92;41.85;;;21.40;99.90;;;;;;4981574;28;20026;-87
2023/09/17 12:04:28;;;;;;;54.50;42.13;;;21.40;99.90;;;;;;5001005;28;20038;-88
2023/09/17 12:06:55;;;;;;;53.22;40.58;;;21.50;99.90;;;;;;4999085;28;20273;-89
2023/09/17 12:12:04;;;;;;;;;;;21.40;99.90;;;;;;5000888;28;20026;-87
2023/09/17 12:14:30;;;;;;;48.15;35.50;;;21.40;99.90;;;;;;4998681;28;19941;-87
2023/09/17 12:16:56;;;;;;;50.70;34.88;;;21.40;99.90;;;;;;5000314;28;20057;-88
2023/09/17 12:19:22;;;;;;;45.05;33.10;;;21.50;99.90;;;;;;4999660;28;20027;-88
2023/09/17 12:21:50;;;;;;;45.40;35.00;;;21.70;99.90;;;;;;4981289;28;20041;-88
2023/09/17 12:24:54;;;;;;;43.28;31.65;;;21.80;99.90;;;;;;4984296;28;20022;-87
2023/09/17 12:27:35;;;;;;;45.20;31.15;;;21.80;99.90;;;;;;4983226;28;20113;-87
2023/09/17 12:30:05;;;;;;;35.63;27.38;;;22.00;99.90;;;;;;5001460;28;20030;-87
2023/09/17 12:32:33;;;;;;;39.15;29.08;;;22.10;99.90;;;;;;4985251;28;20080;-88